sensor_id;sensor_type;location;lat;lon;timestamp;P1;durP1;ratioP1;P2;durP2;ratioP2
34278;SDS011;20538;51.528;9.942;2024-02-04T00:02:07;10.95;;;5.38;;
34278;SDS011;20538;51.528;9.942;2024-02-04T00:04:34;15.20;;;6.25;;
34278;SDS011;20538;51.528;9.942;2024-02-04T00:07:00;10.77;;;5.32;;
34278;SDS011;20538;51.528;9.942;2024-02-04T00:09:26;11.90;;;5.68;;
34278;SDS011;20538;51.528;9.942;2024-02-04T00:11:55;15.70;;;6.18;;
34278;SDS011;20538;51.528;9.942;2024-02-04T00:14:20;12.75;;;5.70;;
34278;SDS011;20538;51.528;9.942;2024-02-04T00:16:46;13.32;;;5.25;;
34278;SDS011;20538;51.528;9.942;2024-02-04T00:19:12;12.48;;;5.82;;
34278;SDS011;20538;51.528;9.942;2024-02-04T00:21:37;12.57;;;5.45;;
34278;SDS011;20538;51.528;9.942;2024-02-04T00:24:03;11.95;;;5.97;;
34278;SDS011;20538;51.528;9.942;2024-02-04T00:26:29;15.20;;;5.57;;
34278;SDS011;20538;51.528;9.942;2024-02-04T00:28:54;13.05;;;4.90;;
34278;SDS011;20538;51.528;9.942;2024-02-04T00:31:20;13.10;;;5.45;;
34278;SDS011;20538;51.528;9.942;2024-02-04T00:33:46;18.00;;;6.65;;
34278;SDS011;20538;51.528;9.942;2024-02-04T00:36:11;9.77;;;5.43;;
34278;SDS011;20538;51.528;9.942;2024-02-04T00:38:37;10.60;;;4.85;;
34278;SDS011;20538;51.528;9.942;2024-02-04T00:41:03;9.60;;;5.10;;
34278;SDS011;20538;51.528;9.942;2024-02-04T00:43:30;8.10;;;3.92;;
34278;SDS011;20538;51.528;9.942;2024-02-04T00:45:58;16.33;;;3.38;;
34278;SDS011;20538;51.528;9.942;2024-02-04T00:48:25;14.98;;;3.80;;
34278;SDS011;20538;51.528;9.942;2024-02-04T00:50:53;9.20;;;4.15;;
34278;SDS011;20538;51.528;9.942;2024-02-04T00:53:18;7.05;;;3.42;;
34278;SDS011;20538;51.528;9.942;2024-02-04T00:55:44;9.23;;;3.95;;
34278;SDS011;20538;51.528;9.942;2024-02-04T00:58:10;12.00;;;3.80;;
34278;SDS011;20538;51.528;9.942;2024-02-04T01:00:36;5.75;;;3.08;;
34278;SDS011;20538;51.528;9.942;2024-02-04T01:03:01;5.63;;;3.08;;
34278;SDS011;20538;51.528;9.942;2024-02-04T01:05:27;5.47;;;2.35;;
34278;SDS011;20538;51.528;9.942;2024-02-04T01:07:53;3.50;;;2.15;;
34278;SDS011;20538;51.528;9.942;2024-02-04T01:10:18;4.45;;;1.95;;
34278;SDS011;20538;51.528;9.942;2024-02-04T01:12:44;3.42;;;1.77;;
34278;SDS011;20538;51.528;9.942;2024-02-04T01:15:10;4.13;;;1.73;;
34278;SDS011;20538;51.528;9.942;2024-02-04T01:17:36;6.68;;;2.13;;
34278;SDS011;20538;51.528;9.942;2024-02-04T01:20:01;2.10;;;1.30;;
34278;SDS011;20538;51.528;9.942;2024-02-04T01:22:27;2.63;;;1.58;;
34278;SDS011;20538;51.528;9.942;2024-02-04T01:24:53;2.63;;;1.38;;
34278;SDS011;20538;51.528;9.942;2024-02-04T01:27:18;1.58;;;1.10;;
34278;SDS011;20538;51.528;9.942;2024-02-04T01:29:44;1.73;;;1.00;;
34278;SDS011;20538;51.528;9.942;2024-02-04T01:32:10;2.53;;;0.90;;
34278;SDS011;20538;51.528;9.942;2024-02-04T01:34:35;2.13;;;1.45;;
34278;SDS011;20538;51.528;9.942;2024-02-04T01:37:01;0.93;;;0.80;;
34278;SDS011;20538;51.528;9.942;2024-02-04T01:39:26;2.42;;;0.85;;
34278;SDS011;20538;51.528;9.942;2024-02-04T01:41:52;1.20;;;1.10;;
34278;SDS011;20538;51.528;9.942;2024-02-04T01:44:18;1.67;;;0.85;;
34278;SDS011;20538;51.528;9.942;2024-02-04T01:46:44;1.67;;;1.10;;
34278;SDS011;20538;51.528;9.942;2024-02-04T01:49:10;0.60;;;0.60;;
34278;SDS011;20538;51.528;9.942;2024-02-04T01:51:36;1.35;;;0.90;;
34278;SDS011;20538;51.528;9.942;2024-02-04T01:54:02;0.90;;;0.80;;
34278;SDS011;20538;51.528;9.942;2024-02-04T01:56:29;3.20;;;1.30;;
34278;SDS011;20538;51.528;9.942;2024-02-04T01:58:55;1.67;;;1.00;;
34278;SDS011;20538;51.528;9.942;2024-02-04T02:01:23;1.70;;;1.05;;
34278;SDS011;20538;51.528;9.942;2024-02-04T02:03:49;2.75;;;1.23;;
34278;SDS011;20538;51.528;9.942;2024-02-04T02:06:16;2.78;;;1.17;;
34278;SDS011;20538;51.528;9.942;2024-02-04T02:08:42;3.50;;;1.52;;
34278;SDS011;20538;51.528;9.942;2024-02-04T02:11:11;3.17;;;1.40;;
34278;SDS011;20538;51.528;9.942;2024-02-04T02:13:43;4.30;;;1.50;;
34278;SDS011;20538;51.528;9.942;2024-02-04T02:16:15;2.72;;;1.35;;
34278;SDS011;20538;51.528;9.942;2024-02-04T02:18:46;2.00;;;1.35;;
34278;SDS011;20538;51.528;9.942;2024-02-04T02:21:30;2.60;;;1.52;;
34278;SDS011;20538;51.528;9.942;2024-02-04T02:26:51;3.30;;;1.40;;
34278;SDS011;20538;51.528;9.942;2024-02-04T02:29:18;3.35;;;1.77;;
34278;SDS011;20538;51.528;9.942;2024-02-04T02:31:43;1.90;;;1.30;;
34278;SDS011;20538;51.528;9.942;2024-02-04T02:34:10;2.03;;;1.63;;
34278;SDS011;20538;51.528;9.942;2024-02-04T02:36:39;1.77;;;1.33;;
34278;SDS011;20538;51.528;9.942;2024-02-04T02:39:23;3.80;;;2.15;;
34278;SDS011;20538;51.528;9.942;2024-02-04T02:41:52;2.78;;;1.63;;
34278;SDS011;20538;51.528;9.942;2024-02-04T02:44:21;2.92;;;1.75;;
34278;SDS011;20538;51.528;9.942;2024-02-04T02:46:48;5.30;;;2.60;;
34278;SDS011;20538;51.528;9.942;2024-02-04T02:49:14;3.05;;;1.45;;
34278;SDS011;20538;51.528;9.942;2024-02-04T02:51:40;3.08;;;1.67;;
34278;SDS011;20538;51.528;9.942;2024-02-04T02:54:05;4.20;;;2.15;;
34278;SDS011;20538;51.528;9.942;2024-02-04T02:56:31;5.05;;;2.70;;
34278;SDS011;20538;51.528;9.942;2024-02-04T02:58:56;4.30;;;2.38;;
34278;SDS011;20538;51.528;9.942;2024-02-04T03:01:22;6.72;;;2.80;;
34278;SDS011;20538;51.528;9.942;2024-02-04T03:03:48;8.45;;;4.00;;
34278;SDS011;20538;51.528;9.942;2024-02-04T03:06:14;8.85;;;3.63;;
34278;SDS011;20538;51.528;9.942;2024-02-04T03:08:40;4.97;;;2.45;;
34278;SDS011;20538;51.528;9.942;2024-02-04T03:11:05;6.30;;;3.20;;
34278;SDS011;20538;51.528;9.942;2024-02-04T03:13:31;5.00;;;3.08;;
34278;SDS011;20538;51.528;9.942;2024-02-04T03:15:57;6.50;;;3.05;;
34278;SDS011;20538;51.528;9.942;2024-02-04T03:18:22;7.20;;;3.40;;
34278;SDS011;20538;51.528;9.942;2024-02-04T03:20:48;5.10;;;2.63;;
34278;SDS011;20538;51.528;9.942;2024-02-04T03:23:13;7.90;;;3.60;;
34278;SDS011;20538;51.528;9.942;2024-02-04T03:25:39;6.68;;;3.33;;
34278;SDS011;20538;51.528;9.942;2024-02-04T03:28:05;7.63;;;2.97;;
34278;SDS011;20538;51.528;9.942;2024-02-04T03:30:30;5.75;;;2.90;;
34278;SDS011;20538;51.528;9.942;2024-02-04T03:32:56;7.38;;;2.95;;
34278;SDS011;20538;51.528;9.942;2024-02-04T03:35:22;5.65;;;2.58;;
34278;SDS011;20538;51.528;9.942;2024-02-04T03:37:47;5.85;;;2.78;;
34278;SDS011;20538;51.528;9.942;2024-02-04T03:40:13;7.28;;;3.28;;
34278;SDS011;20538;51.528;9.942;2024-02-04T03:42:39;9.52;;;2.67;;
34278;SDS011;20538;51.528;9.942;2024-02-04T03:45:05;3.75;;;2.05;;
34278;SDS011;20538;51.528;9.942;2024-02-04T03:47:31;7.60;;;2.88;;
34278;SDS011;20538;51.528;9.942;2024-02-04T03:49:57;7.03;;;2.55;;
34278;SDS011;20538;51.528;9.942;2024-02-04T03:52:25;8.10;;;2.63;;
34278;SDS011;20538;51.528;9.942;2024-02-04T03:54:51;3.33;;;2.25;;
34278;SDS011;20538;51.528;9.942;2024-02-04T03:57:16;7.43;;;2.83;;
34278;SDS011;20538;51.528;9.942;2024-02-04T03:59:45;4.00;;;2.50;;
34278;SDS011;20538;51.528;9.942;2024-02-04T04:02:11;5.25;;;2.00;;
34278;SDS011;20538;51.528;9.942;2024-02-04T04:04:39;5.07;;;2.65;;
34278;SDS011;20538;51.528;9.942;2024-02-04T04:07:06;4.63;;;2.20;;
34278;SDS011;20538;51.528;9.942;2024-02-04T04:09:32;5.07;;;2.30;;
34278;SDS011;20538;51.528;9.942;2024-02-04T04:11:58;6.20;;;2.22;;
34278;SDS011;20538;51.528;9.942;2024-02-04T04:14:23;6.75;;;2.42;;
34278;SDS011;20538;51.528;9.942;2024-02-04T04:16:49;4.15;;;2.10;;
34278;SDS011;20538;51.528;9.942;2024-02-04T04:19:14;5.80;;;2.40;;
34278;SDS011;20538;51.528;9.942;2024-02-04T04:21:40;3.45;;;2.30;;
34278;SDS011;20538;51.528;9.942;2024-02-04T04:24:06;2.63;;;1.73;;
34278;SDS011;20538;51.528;9.942;2024-02-04T04:26:31;6.55;;;1.92;;
34278;SDS011;20538;51.528;9.942;2024-02-04T04:28:58;4.30;;;2.03;;
34278;SDS011;20538;51.528;9.942;2024-02-04T04:31:27;2.85;;;1.60;;
34278;SDS011;20538;51.528;9.942;2024-02-04T04:33:53;6.85;;;2.50;;
34278;SDS011;20538;51.528;9.942;2024-02-04T04:36:19;3.20;;;1.98;;
34278;SDS011;20538;51.528;9.942;2024-02-04T04:38:45;7.50;;;2.55;;
34278;SDS011;20538;51.528;9.942;2024-02-04T04:41:14;3.90;;;2.15;;
34278;SDS011;20538;51.528;9.942;2024-02-04T04:43:40;5.15;;;1.77;;
34278;SDS011;20538;51.528;9.942;2024-02-04T04:46:08;2.97;;;1.50;;
34278;SDS011;20538;51.528;9.942;2024-02-04T04:48:34;3.25;;;1.52;;
34278;SDS011;20538;51.528;9.942;2024-02-04T04:50:59;4.85;;;1.67;;
34278;SDS011;20538;51.528;9.942;2024-02-04T04:53:25;2.85;;;1.85;;
34278;SDS011;20538;51.528;9.942;2024-02-04T04:55:51;3.10;;;1.70;;
34278;SDS011;20538;51.528;9.942;2024-02-04T04:58:16;4.07;;;1.85;;
34278;SDS011;20538;51.528;9.942;2024-02-04T05:00:42;2.72;;;1.45;;
34278;SDS011;20538;51.528;9.942;2024-02-04T05:03:07;3.72;;;1.50;;
34278;SDS011;20538;51.528;9.942;2024-02-04T05:05:33;6.45;;;1.77;;
34278;SDS011;20538;51.528;9.942;2024-02-04T05:07:59;2.80;;;1.40;;
34278;SDS011;20538;51.528;9.942;2024-02-04T05:10:24;3.00;;;1.40;;
34278;SDS011;20538;51.528;9.942;2024-02-04T05:12:50;5.85;;;1.05;;
34278;SDS011;20538;51.528;9.942;2024-02-04T05:15:15;2.90;;;1.30;;
34278;SDS011;20538;51.528;9.942;2024-02-04T05:17:41;2.10;;;1.38;;
34278;SDS011;20538;51.528;9.942;2024-02-04T05:20:07;1.13;;;0.93;;
34278;SDS011;20538;51.528;9.942;2024-02-04T05:22:33;1.50;;;1.00;;
34278;SDS011;20538;51.528;9.942;2024-02-04T05:24:58;2.47;;;1.40;;
34278;SDS011;20538;51.528;9.942;2024-02-04T05:27:24;2.40;;;1.13;;
34278;SDS011;20538;51.528;9.942;2024-02-04T05:29:50;0.98;;;0.73;;
34278;SDS011;20538;51.528;9.942;2024-02-04T05:32:15;1.42;;;0.82;;
34278;SDS011;20538;51.528;9.942;2024-02-04T05:34:41;2.70;;;0.90;;
34278;SDS011;20538;51.528;9.942;2024-02-04T05:37:07;4.18;;;0.60;;
34278;SDS011;20538;51.528;9.942;2024-02-04T05:39:32;0.40;;;0.40;;
34278;SDS011;20538;51.528;9.942;2024-02-04T05:42:00;1.30;;;0.50;;
34278;SDS011;20538;51.528;9.942;2024-02-04T05:44:26;0.28;;;0.20;;
34278;SDS011;20538;51.528;9.942;2024-02-04T05:46:52;0.30;;;0.30;;
34278;SDS011;20538;51.528;9.942;2024-02-04T05:49:17;0.50;;;0.40;;
34278;SDS011;20538;51.528;9.942;2024-02-04T05:51:43;0.63;;;0.40;;
34278;SDS011;20538;51.528;9.942;2024-02-04T05:54:08;1.15;;;0.68;;
34278;SDS011;20538;51.528;9.942;2024-02-04T05:56:34;0.32;;;0.30;;
34278;SDS011;20538;51.528;9.942;2024-02-04T05:59:00;0.20;;;0.20;;
34278;SDS011;20538;51.528;9.942;2024-02-04T06:01:26;0.60;;;0.30;;
34278;SDS011;20538;51.528;9.942;2024-02-04T06:03:51;0.82;;;0.80;;
34278;SDS011;20538;51.528;9.942;2024-02-04T06:06:17;0.60;;;0.60;;
34278;SDS011;20538;51.528;9.942;2024-02-04T06:08:45;0.30;;;0.30;;
34278;SDS011;20538;51.528;9.942;2024-02-04T06:11:12;0.38;;;0.30;;
34278;SDS011;20538;51.528;9.942;2024-02-04T06:13:39;0.63;;;0.47;;
34278;SDS011;20538;51.528;9.942;2024-02-04T06:16:05;0.50;;;0.40;;
34278;SDS011;20538;51.528;9.942;2024-02-04T06:18:31;0.40;;;0.40;;
34278;SDS011;20538;51.528;9.942;2024-02-04T06:20:57;0.45;;;0.40;;
34278;SDS011;20538;51.528;9.942;2024-02-04T06:23:22;0.28;;;0.17;;
34278;SDS011;20538;51.528;9.942;2024-02-04T06:25:48;0.35;;;0.35;;
34278;SDS011;20538;51.528;9.942;2024-02-04T06:28:14;0.17;;;0.17;;
34278;SDS011;20538;51.528;9.942;2024-02-04T06:30:39;0.52;;;0.40;;
34278;SDS011;20538;51.528;9.942;2024-02-04T06:33:05;0.20;;;0.20;;
34278;SDS011;20538;51.528;9.942;2024-02-04T06:35:31;0.47;;;0.32;;
34278;SDS011;20538;51.528;9.942;2024-02-04T06:37:58;1.80;;;0.30;;
34278;SDS011;20538;51.528;9.942;2024-02-04T06:40:24;1.23;;;0.47;;
34278;SDS011;20538;51.528;9.942;2024-02-04T06:42:50;0.22;;;0.22;;
34278;SDS011;20538;51.528;9.942;2024-02-04T06:45:15;1.55;;;0.60;;
34278;SDS011;20538;51.528;9.942;2024-02-04T06:47:44;0.30;;;0.30;;
34278;SDS011;20538;51.528;9.942;2024-02-04T06:50:10;0.35;;;0.35;;
34278;SDS011;20538;51.528;9.942;2024-02-04T06:52:39;0.70;;;0.50;;
34278;SDS011;20538;51.528;9.942;2024-02-04T06:55:05;0.50;;;0.40;;
34278;SDS011;20538;51.528;9.942;2024-02-04T06:57:31;0.73;;;0.40;;
34278;SDS011;20538;51.528;9.942;2024-02-04T06:59:57;1.52;;;1.05;;
34278;SDS011;20538;51.528;9.942;2024-02-04T07:02:22;2.00;;;1.23;;
34278;SDS011;20538;51.528;9.942;2024-02-04T07:04:48;3.70;;;1.70;;
34278;SDS011;20538;51.528;9.942;2024-02-04T07:07:16;3.72;;;1.38;;
34278;SDS011;20538;51.528;9.942;2024-02-04T07:09:42;2.00;;;1.50;;
34278;SDS011;20538;51.528;9.942;2024-02-04T07:12:07;2.00;;;1.40;;
34278;SDS011;20538;51.528;9.942;2024-02-04T07:14:33;5.93;;;2.72;;
34278;SDS011;20538;51.528;9.942;2024-02-04T07:16:59;6.60;;;2.88;;
34278;SDS011;20538;51.528;9.942;2024-02-04T07:19:24;6.13;;;2.13;;
34278;SDS011;20538;51.528;9.942;2024-02-04T07:21:50;5.88;;;2.67;;
34278;SDS011;20538;51.528;9.942;2024-02-04T07:24:15;4.10;;;2.75;;
34278;SDS011;20538;51.528;9.942;2024-02-04T07:26:41;6.63;;;3.28;;
34278;SDS011;20538;51.528;9.942;2024-02-04T07:29:07;9.98;;;2.83;;
34278;SDS011;20538;51.528;9.942;2024-02-04T07:31:32;6.18;;;3.42;;
34278;SDS011;20538;51.528;9.942;2024-02-04T07:34:02;5.65;;;3.65;;
34278;SDS011;20538;51.528;9.942;2024-02-04T07:36:28;7.00;;;3.03;;
34278;SDS011;20538;51.528;9.942;2024-02-04T07:38:54;7.65;;;3.72;;
34278;SDS011;20538;51.528;9.942;2024-02-04T07:41:19;5.18;;;3.17;;
34278;SDS011;20538;51.528;9.942;2024-02-04T07:43:45;6.85;;;3.72;;
34278;SDS011;20538;51.528;9.942;2024-02-04T07:46:11;11.95;;;3.80;;
34278;SDS011;20538;51.528;9.942;2024-02-04T07:48:36;5.03;;;2.90;;
34278;SDS011;20538;51.528;9.942;2024-02-04T07:51:02;7.97;;;3.20;;
34278;SDS011;20538;51.528;9.942;2024-02-04T07:53:28;4.40;;;2.78;;
34278;SDS011;20538;51.528;9.942;2024-02-04T07:55:53;9.60;;;3.20;;
34278;SDS011;20538;51.528;9.942;2024-02-04T07:58:19;7.95;;;3.28;;
34278;SDS011;20538;51.528;9.942;2024-02-04T08:00:46;7.72;;;3.33;;
34278;SDS011;20538;51.528;9.942;2024-02-04T08:03:12;3.88;;;2.30;;
34278;SDS011;20538;51.528;9.942;2024-02-04T08:05:39;5.28;;;2.83;;
34278;SDS011;20538;51.528;9.942;2024-02-04T08:08:04;3.90;;;2.50;;
34278;SDS011;20538;51.528;9.942;2024-02-04T08:10:30;2.42;;;1.52;;
34278;SDS011;20538;51.528;9.942;2024-02-04T08:12:56;4.90;;;3.00;;
34278;SDS011;20538;51.528;9.942;2024-02-04T08:15:22;5.85;;;2.80;;
34278;SDS011;20538;51.528;9.942;2024-02-04T08:17:48;5.07;;;2.42;;
34278;SDS011;20538;51.528;9.942;2024-02-04T08:20:13;5.90;;;3.10;;
34278;SDS011;20538;51.528;9.942;2024-02-04T08:22:39;4.93;;;3.15;;
34278;SDS011;20538;51.528;9.942;2024-02-04T08:25:05;6.90;;;3.28;;
34278;SDS011;20538;51.528;9.942;2024-02-04T08:27:34;7.22;;;3.58;;
34278;SDS011;20538;51.528;9.942;2024-02-04T08:30:00;9.10;;;3.85;;
34278;SDS011;20538;51.528;9.942;2024-02-04T08:32:25;6.22;;;2.97;;
34278;SDS011;20538;51.528;9.942;2024-02-04T08:34:51;9.85;;;4.65;;
34278;SDS011;20538;51.528;9.942;2024-02-04T08:37:20;6.95;;;3.72;;
34278;SDS011;20538;51.528;9.942;2024-02-04T08:39:48;8.52;;;4.25;;
34278;SDS011;20538;51.528;9.942;2024-02-04T08:42:15;7.18;;;4.03;;
34278;SDS011;20538;51.528;9.942;2024-02-04T08:44:40;7.15;;;4.10;;
34278;SDS011;20538;51.528;9.942;2024-02-04T08:47:08;7.10;;;4.03;;
34278;SDS011;20538;51.528;9.942;2024-02-04T08:49:39;7.10;;;4.38;;
34278;SDS011;20538;51.528;9.942;2024-02-04T08:52:05;5.45;;;2.92;;
34278;SDS011;20538;51.528;9.942;2024-02-04T08:54:30;6.53;;;3.55;;
34278;SDS011;20538;51.528;9.942;2024-02-04T08:56:56;8.07;;;3.45;;
34278;SDS011;20538;51.528;9.942;2024-02-04T08:59:22;7.28;;;3.95;;
34278;SDS011;20538;51.528;9.942;2024-02-04T09:01:49;10.80;;;3.47;;
34278;SDS011;20538;51.528;9.942;2024-02-04T09:04:15;12.48;;;3.80;;
34278;SDS011;20538;51.528;9.942;2024-02-04T09:06:43;5.78;;;3.38;;
34278;SDS011;20538;51.528;9.942;2024-02-04T09:09:09;9.48;;;3.50;;
34278;SDS011;20538;51.528;9.942;2024-02-04T09:11:35;7.82;;;3.53;;
34278;SDS011;20538;51.528;9.942;2024-02-04T09:14:00;9.27;;;3.83;;
34278;SDS011;20538;51.528;9.942;2024-02-04T09:16:27;8.10;;;3.83;;
34278;SDS011;20538;51.528;9.942;2024-02-04T09:18:53;6.35;;;3.33;;
34278;SDS011;20538;51.528;9.942;2024-02-04T09:21:18;7.78;;;3.20;;
34278;SDS011;20538;51.528;9.942;2024-02-04T09:23:44;4.65;;;2.75;;
34278;SDS011;20538;51.528;9.942;2024-02-04T09:26:10;6.82;;;3.75;;
34278;SDS011;20538;51.528;9.942;2024-02-04T09:28:35;4.13;;;2.65;;
34278;SDS011;20538;51.528;9.942;2024-02-04T09:31:02;5.65;;;3.38;;
34278;SDS011;20538;51.528;9.942;2024-02-04T09:33:28;6.90;;;3.70;;
34278;SDS011;20538;51.528;9.942;2024-02-04T09:35:54;5.85;;;3.53;;
34278;SDS011;20538;51.528;9.942;2024-02-04T09:38:22;7.53;;;3.65;;
34278;SDS011;20538;51.528;9.942;2024-02-04T09:40:48;6.30;;;3.38;;
34278;SDS011;20538;51.528;9.942;2024-02-04T09:43:13;6.28;;;3.20;;
34278;SDS011;20538;51.528;9.942;2024-02-04T09:45:40;7.25;;;3.75;;
34278;SDS011;20538;51.528;9.942;2024-02-04T09:48:09;8.18;;;3.72;;
34278;SDS011;20538;51.528;9.942;2024-02-04T09:50:35;7.03;;;3.90;;
34278;SDS011;20538;51.528;9.942;2024-02-04T09:53:01;5.85;;;3.03;;
34278;SDS011;20538;51.528;9.942;2024-02-04T09:55:29;5.22;;;2.90;;
34278;SDS011;20538;51.528;9.942;2024-02-04T09:57:56;6.15;;;3.42;;
34278;SDS011;20538;51.528;9.942;2024-02-04T10:00:22;7.82;;;4.32;;
34278;SDS011;20538;51.528;9.942;2024-02-04T10:02:52;5.68;;;2.83;;
34278;SDS011;20538;51.528;9.942;2024-02-04T10:05:20;5.13;;;3.00;;
34278;SDS011;20538;51.528;9.942;2024-02-04T10:07:46;10.38;;;4.55;;
34278;SDS011;20538;51.528;9.942;2024-02-04T10:10:12;14.85;;;6.30;;
34278;SDS011;20538;51.528;9.942;2024-02-04T10:12:38;8.20;;;4.20;;
34278;SDS011;20538;51.528;9.942;2024-02-04T10:15:06;5.55;;;3.42;;
34278;SDS011;20538;51.528;9.942;2024-02-04T10:17:32;5.80;;;3.45;;
34278;SDS011;20538;51.528;9.942;2024-02-04T10:19:58;5.75;;;3.13;;
34278;SDS011;20538;51.528;9.942;2024-02-04T10:22:34;5.10;;;2.88;;
34278;SDS011;20538;51.528;9.942;2024-02-04T10:25:06;8.75;;;3.25;;
34278;SDS011;20538;51.528;9.942;2024-02-04T10:31:20;6.35;;;3.45;;
34278;SDS011;20538;51.528;9.942;2024-02-04T10:33:45;4.18;;;2.67;;
34278;SDS011;20538;51.528;9.942;2024-02-04T10:36:11;6.30;;;2.47;;
34278;SDS011;20538;51.528;9.942;2024-02-04T10:38:36;2.60;;;1.90;;
34278;SDS011;20538;51.528;9.942;2024-02-04T10:41:02;3.05;;;1.88;;
34278;SDS011;20538;51.528;9.942;2024-02-04T10:43:32;2.10;;;1.67;;
34278;SDS011;20538;51.528;9.942;2024-02-04T10:46:09;7.75;;;2.45;;
34278;SDS011;20538;51.528;9.942;2024-02-04T10:48:38;5.07;;;1.58;;
34278;SDS011;20538;51.528;9.942;2024-02-04T10:51:13;5.22;;;2.33;;
34278;SDS011;20538;51.528;9.942;2024-02-04T10:53:42;3.85;;;1.95;;
34278;SDS011;20538;51.528;9.942;2024-02-04T10:56:13;3.10;;;2.17;;
34278;SDS011;20538;51.528;9.942;2024-02-04T10:58:59;5.20;;;2.95;;
34278;SDS011;20538;51.528;9.942;2024-02-04T11:01:27;3.72;;;2.22;;
34278;SDS011;20538;51.528;9.942;2024-02-04T11:03:54;3.80;;;2.42;;
34278;SDS011;20538;51.528;9.942;2024-02-04T11:06:21;7.72;;;3.50;;
34278;SDS011;20538;51.528;9.942;2024-02-04T11:08:48;4.93;;;2.97;;
34278;SDS011;20538;51.528;9.942;2024-02-04T11:11:15;7.70;;;3.72;;
34278;SDS011;20538;51.528;9.942;2024-02-04T11:13:42;4.57;;;2.08;;
34278;SDS011;20538;51.528;9.942;2024-02-04T11:16:25;3.58;;;2.20;;
34278;SDS011;20538;51.528;9.942;2024-02-04T11:21:45;2.95;;;1.98;;
34278;SDS011;20538;51.528;9.942;2024-02-04T11:27:03;3.97;;;2.20;;
34278;SDS011;20538;51.528;9.942;2024-02-04T11:29:28;4.63;;;2.65;;
34278;SDS011;20538;51.528;9.942;2024-02-04T11:31:54;4.10;;;2.65;;
34278;SDS011;20538;51.528;9.942;2024-02-04T11:34:20;2.35;;;1.77;;
34278;SDS011;20538;51.528;9.942;2024-02-04T11:36:46;2.90;;;2.10;;
34278;SDS011;20538;51.528;9.942;2024-02-04T11:39:17;8.27;;;2.58;;
34278;SDS011;20538;51.528;9.942;2024-02-04T11:41:49;4.18;;;2.08;;
34278;SDS011;20538;51.528;9.942;2024-02-04T11:44:21;3.08;;;1.90;;
34278;SDS011;20538;51.528;9.942;2024-02-04T11:49:19;4.05;;;1.90;;
34278;SDS011;20538;51.528;9.942;2024-02-04T11:51:52;4.90;;;3.20;;
34278;SDS011;20538;51.528;9.942;2024-02-04T11:54:19;5.78;;;2.17;;
34278;SDS011;20538;51.528;9.942;2024-02-04T11:56:48;2.28;;;1.50;;
34278;SDS011;20538;51.528;9.942;2024-02-04T11:59:22;3.20;;;2.28;;
34278;SDS011;20538;51.528;9.942;2024-02-04T12:01:55;3.42;;;1.83;;
34278;SDS011;20538;51.528;9.942;2024-02-04T12:04:22;1.98;;;1.70;;
34278;SDS011;20538;51.528;9.942;2024-02-04T12:06:48;4.07;;;2.00;;
34278;SDS011;20538;51.528;9.942;2024-02-04T12:09:18;6.38;;;3.10;;
34278;SDS011;20538;51.528;9.942;2024-02-04T12:11:44;3.15;;;1.55;;
34278;SDS011;20538;51.528;9.942;2024-02-04T12:14:10;3.42;;;1.83;;
34278;SDS011;20538;51.528;9.942;2024-02-04T12:16:36;5.13;;;1.77;;
34278;SDS011;20538;51.528;9.942;2024-02-04T12:19:02;4.95;;;1.83;;
34278;SDS011;20538;51.528;9.942;2024-02-04T12:21:29;4.20;;;1.83;;
34278;SDS011;20538;51.528;9.942;2024-02-04T12:23:55;3.67;;;2.00;;
34278;SDS011;20538;51.528;9.942;2024-02-04T12:26:22;3.38;;;1.40;;
34278;SDS011;20538;51.528;9.942;2024-02-04T12:28:48;1.88;;;1.35;;
34278;SDS011;20538;51.528;9.942;2024-02-04T12:31:21;1.63;;;1.10;;
34278;SDS011;20538;51.528;9.942;2024-02-04T12:33:53;1.65;;;1.02;;
34278;SDS011;20538;51.528;9.942;2024-02-04T12:36:26;2.83;;;1.83;;
34278;SDS011;20538;51.528;9.942;2024-02-04T12:38:53;1.88;;;1.20;;
34278;SDS011;20538;51.528;9.942;2024-02-04T12:41:20;1.48;;;1.38;;
34278;SDS011;20538;51.528;9.942;2024-02-04T12:43:56;2.17;;;1.40;;
34278;SDS011;20538;51.528;9.942;2024-02-04T12:46:24;9.15;;;1.95;;
34278;SDS011;20538;51.528;9.942;2024-02-04T12:48:53;2.80;;;1.75;;
34278;SDS011;20538;51.528;9.942;2024-02-04T12:51:30;1.40;;;1.10;;
34278;SDS011;20538;51.528;9.942;2024-02-04T12:56:42;2.15;;;1.30;;
34278;SDS011;20538;51.528;9.942;2024-02-04T12:59:08;1.58;;;1.20;;
34278;SDS011;20538;51.528;9.942;2024-02-04T13:01:35;3.15;;;1.75;;
34278;SDS011;20538;51.528;9.942;2024-02-04T13:04:02;1.42;;;1.23;;
34278;SDS011;20538;51.528;9.942;2024-02-04T13:06:28;3.85;;;1.27;;
34278;SDS011;20538;51.528;9.942;2024-02-04T13:08:54;2.35;;;1.27;;
34278;SDS011;20538;51.528;9.942;2024-02-04T13:11:24;3.15;;;1.60;;
34278;SDS011;20538;51.528;9.942;2024-02-04T13:13:50;3.58;;;1.52;;
34278;SDS011;20538;51.528;9.942;2024-02-04T13:16:16;2.42;;;1.58;;
34278;SDS011;20538;51.528;9.942;2024-02-04T13:18:44;4.85;;;1.50;;
34278;SDS011;20538;51.528;9.942;2024-02-04T13:21:16;2.97;;;1.83;;
34278;SDS011;20538;51.528;9.942;2024-02-04T13:23:45;1.52;;;1.08;;
34278;SDS011;20538;51.528;9.942;2024-02-04T13:26:10;2.53;;;1.65;;
34278;SDS011;20538;51.528;9.942;2024-02-04T13:28:36;4.68;;;2.00;;
34278;SDS011;20538;51.528;9.942;2024-02-04T13:31:04;4.07;;;1.50;;
34278;SDS011;20538;51.528;9.942;2024-02-04T13:33:29;2.03;;;1.30;;
34278;SDS011;20538;51.528;9.942;2024-02-04T13:35:55;2.35;;;1.45;;
34278;SDS011;20538;51.528;9.942;2024-02-04T13:38:21;3.22;;;1.42;;
34278;SDS011;20538;51.528;9.942;2024-02-04T13:40:47;2.13;;;1.55;;
34278;SDS011;20538;51.528;9.942;2024-02-04T13:43:13;1.83;;;1.10;;
34278;SDS011;20538;51.528;9.942;2024-02-04T13:45:38;1.20;;;0.95;;
34278;SDS011;20538;51.528;9.942;2024-02-04T13:48:05;1.52;;;1.40;;
34278;SDS011;20538;51.528;9.942;2024-02-04T13:50:30;2.80;;;1.80;;
34278;SDS011;20538;51.528;9.942;2024-02-04T13:52:57;2.33;;;1.30;;
34278;SDS011;20538;51.528;9.942;2024-02-04T13:55:23;1.95;;;1.25;;
34278;SDS011;20538;51.528;9.942;2024-02-04T13:57:49;1.15;;;1.05;;
34278;SDS011;20538;51.528;9.942;2024-02-04T14:00:15;1.25;;;0.90;;
34278;SDS011;20538;51.528;9.942;2024-02-04T14:02:42;1.60;;;1.38;;
34278;SDS011;20538;51.528;9.942;2024-02-04T14:05:08;1.65;;;0.90;;
34278;SDS011;20538;51.528;9.942;2024-02-04T14:07:34;2.35;;;1.05;;
34278;SDS011;20538;51.528;9.942;2024-02-04T14:10:00;1.20;;;0.90;;
34278;SDS011;20538;51.528;9.942;2024-02-04T14:12:25;1.13;;;0.82;;
34278;SDS011;20538;51.528;9.942;2024-02-04T14:14:51;4.70;;;1.05;;
34278;SDS011;20538;51.528;9.942;2024-02-04T14:17:19;1.00;;;0.90;;
34278;SDS011;20538;51.528;9.942;2024-02-04T14:19:45;0.90;;;0.80;;
34278;SDS011;20538;51.528;9.942;2024-02-04T14:22:14;1.23;;;0.88;;
34278;SDS011;20538;51.528;9.942;2024-02-04T14:24:41;1.98;;;1.40;;
34278;SDS011;20538;51.528;9.942;2024-02-04T14:27:06;2.60;;;0.93;;
34278;SDS011;20538;51.528;9.942;2024-02-04T14:29:32;4.82;;;1.73;;
34278;SDS011;20538;51.528;9.942;2024-02-04T14:31:58;4.07;;;1.48;;
34278;SDS011;20538;51.528;9.942;2024-02-04T14:34:23;2.03;;;1.02;;
34278;SDS011;20538;51.528;9.942;2024-02-04T14:36:50;1.25;;;0.80;;
34278;SDS011;20538;51.528;9.942;2024-02-04T14:39:15;5.50;;;3.17;;
34278;SDS011;20538;51.528;9.942;2024-02-04T14:41:41;1.52;;;1.33;;
34278;SDS011;20538;51.528;9.942;2024-02-04T14:44:06;2.13;;;1.50;;
34278;SDS011;20538;51.528;9.942;2024-02-04T14:46:35;2.90;;;1.15;;
34278;SDS011;20538;51.528;9.942;2024-02-04T14:49:01;2.75;;;1.60;;
34278;SDS011;20538;51.528;9.942;2024-02-04T14:51:27;1.52;;;0.93;;
34278;SDS011;20538;51.528;9.942;2024-02-04T14:53:53;1.23;;;0.80;;
34278;SDS011;20538;51.528;9.942;2024-02-04T14:56:18;1.23;;;0.90;;
34278;SDS011;20538;51.528;9.942;2024-02-04T14:58:44;1.73;;;1.30;;
34278;SDS011;20538;51.528;9.942;2024-02-04T15:01:09;1.10;;;0.88;;
34278;SDS011;20538;51.528;9.942;2024-02-04T15:03:35;2.08;;;1.20;;